createdAt,value
2024-02-28T00:00:11.762Z,4.37
2024-02-28T00:05:13.321Z,4.38
2024-02-28T00:10:15.216Z,4.36
2024-02-28T00:15:16.947Z,4.40
2024-02-28T00:20:18.596Z,4.37
2024-02-28T00:25:20.164Z,4.38
2024-02-28T00:30:21.683Z,4.37
2024-02-28T00:35:23.169Z,4.41
2024-02-28T00:40:26.126Z,4.40
2024-02-28T00:45:27.656Z,4.42
2024-02-28T00:50:29.154Z,4.44
2024-02-28T00:55:30.662Z,4.38
2024-02-28T01:00:32.325Z,4.40
2024-02-28T01:05:34.171Z,4.42
2024-02-28T01:10:35.781Z,4.41
2024-02-28T01:15:37.494Z,4.46
2024-02-28T01:20:39.050Z,4.43
2024-02-28T01:25:40.762Z,4.44
2024-02-28T01:30:42.260Z,4.39
2024-02-28T01:35:43.766Z,4.55
2024-02-28T01:40:48.140Z,4.45
2024-02-28T01:45:50.755Z,4.38
2024-02-28T01:50:52.337Z,4.32
2024-02-28T01:55:55.488Z,4.36
2024-02-28T02:00:57.696Z,4.33
2024-02-28T02:05:59.223Z,4.26
2024-02-28T02:11:00.911Z,4.25
2024-02-28T02:16:02.947Z,4.20
2024-02-28T02:21:07.792Z,4.21
2024-02-28T02:26:09.419Z,4.13
2024-02-28T02:31:14.019Z,4.16
2024-02-28T02:36:15.546Z,4.16
2024-02-28T02:41:17.050Z,4.05
2024-02-28T02:46:18.548Z,4.13
2024-02-28T02:51:21.165Z,4.22
2024-02-28T02:56:22.699Z,4.01
2024-02-28T03:01:24.202Z,4.02
2024-02-28T03:06:25.789Z,3.93
2024-02-28T03:11:27.374Z,3.90
2024-02-28T03:16:30.174Z,4.00
2024-02-28T03:21:31.733Z,3.90
2024-02-28T03:26:33.880Z,3.95
2024-02-28T03:31:35.356Z,3.85
2024-02-28T03:36:36.858Z,3.82
2024-02-28T03:41:39.120Z,3.92
2024-02-28T03:46:40.600Z,3.81
2024-02-28T03:51:42.414Z,3.77
2024-02-28T03:56:43.981Z,3.76
2024-02-28T04:01:45.536Z,3.80
2024-02-28T04:06:47.082Z,3.72
2024-02-28T04:11:48.631Z,3.74
2024-02-28T04:16:51.400Z,3.72
2024-02-28T04:21:53.006Z,3.72
2024-02-28T04:26:54.564Z,3.72
2024-02-28T04:31:56.062Z,3.80
2024-02-28T04:36:57.597Z,3.92
2024-02-28T04:41:59.192Z,3.98
2024-02-28T04:47:00.689Z,4.23
2024-02-28T04:52:02.224Z,4.16
2024-02-28T04:57:04.328Z,3.91
2024-02-28T05:02:06.236Z,3.79
2024-02-28T05:07:08.565Z,3.77
2024-02-28T05:12:10.157Z,3.80
2024-02-28T05:17:11.653Z,3.82
2024-02-28T05:22:13.120Z,3.70
2024-02-28T05:27:14.809Z,3.80
2024-02-28T05:32:18.045Z,3.85
2024-02-28T05:37:19.669Z,3.89
2024-02-28T05:42:25.147Z,3.95
2024-02-28T05:47:26.705Z,4.02
2024-02-28T05:52:28.360Z,3.79
2024-02-28T05:57:29.903Z,3.76
2024-02-28T06:02:31.418Z,4.00
2024-02-28T06:07:32.919Z,3.92
2024-02-28T06:12:34.453Z,3.86
2024-02-28T06:17:35.969Z,4.09
2024-02-28T06:22:37.454Z,4.06
2024-02-28T06:27:38.955Z,4.01
2024-02-28T06:32:40.518Z,3.71
2024-02-28T06:37:42.069Z,3.74
2024-02-28T06:42:43.563Z,3.78
2024-02-28T06:52:47.841Z,3.62
2024-02-28T06:57:49.545Z,3.59
2024-02-28T07:02:51.674Z,3.57
2024-02-28T07:07:53.185Z,3.65
2024-02-28T07:12:54.756Z,3.65
2024-02-28T07:17:56.360Z,3.72
2024-02-28T07:22:57.901Z,3.87
2024-02-28T07:28:03.738Z,3.70
2024-02-28T07:33:07.002Z,3.71
2024-02-28T07:38:10.125Z,3.75
2024-02-28T07:43:11.613Z,3.73
2024-02-28T07:48:13.357Z,3.75
2024-02-28T07:53:14.919Z,3.81
2024-02-28T07:58:17.748Z,3.88
2024-02-28T08:03:19.963Z,3.95
2024-02-28T08:08:21.472Z,3.77
2024-02-28T08:13:23.275Z,3.90
2024-02-28T08:18:24.958Z,3.90
2024-02-28T08:23:27.475Z,3.87
2024-02-28T08:28:28.987Z,3.93
2024-02-28T08:33:30.622Z,3.97
2024-02-28T08:38:32.260Z,3.91
2024-02-28T08:43:38.372Z,3.84
2024-02-28T08:48:41.450Z,3.73
2024-02-28T08:53:42.965Z,3.87
2024-02-28T08:58:45.701Z,3.91
2024-02-28T09:03:47.260Z,3.89
2024-02-28T09:08:48.988Z,3.94
2024-02-28T09:13:50.475Z,3.92
2024-02-28T09:18:51.984Z,3.98
2024-02-28T09:23:53.575Z,4.01
2024-02-28T09:28:55.073Z,3.97
2024-02-28T09:33:59.296Z,4.21
2024-02-28T09:39:01.755Z,4.02
2024-02-28T09:44:03.993Z,3.87
2024-02-28T09:49:06.526Z,3.79
2024-02-28T09:54:08.216Z,3.86
2024-02-28T09:59:11.921Z,3.81
2024-02-28T10:04:14.634Z,3.53
2024-02-28T10:09:16.182Z,3.77
2024-02-28T10:14:20.743Z,3.95
2024-02-28T10:19:22.251Z,3.89
2024-02-28T10:24:26.606Z,4.13
2024-02-28T10:29:33.788Z,4.00
2024-02-28T10:34:36.165Z,4.15
2024-02-28T10:39:39.232Z,4.22
2024-02-28T10:44:43.435Z,4.10
2024-02-28T10:49:45.384Z,4.03
2024-02-28T10:54:54.935Z,3.83
2024-02-28T10:59:57.495Z,3.94
2024-02-28T11:05:01.604Z,4.07
2024-02-28T11:10:07.786Z,4.12
2024-02-28T11:15:18.301Z,4.30
2024-02-28T11:20:20.177Z,4.42
2024-02-28T11:25:21.751Z,4.00
2024-02-28T11:30:23.361Z,4.18
2024-02-28T11:35:24.860Z,4.15
2024-02-28T11:40:26.638Z,4.10
2024-02-28T11:45:28.217Z,4.21
2024-02-28T11:50:31.534Z,4.49
2024-02-28T11:55:33.226Z,4.59
2024-02-28T12:00:34.784Z,4.31
2024-02-28T12:05:39.861Z,4.46
2024-02-28T12:10:41.341Z,4.54
2024-02-28T12:15:42.936Z,4.63
2024-02-28T12:20:44.518Z,4.71
2024-02-28T12:25:46.230Z,4.61
2024-02-28T12:30:47.789Z,4.85
2024-02-28T12:35:49.513Z,4.73
2024-02-28T12:40:51.052Z,4.78
2024-02-28T12:45:52.603Z,4.49
2024-02-28T12:50:54.448Z,4.59
2024-02-28T12:55:56.028Z,5.00
2024-02-28T13:00:57.603Z,4.93
2024-02-28T13:05:59.460Z,5.29
2024-02-28T13:11:01.624Z,5.08
2024-02-28T13:16:09.466Z,5.40
2024-02-28T13:21:11.447Z,5.92
2024-02-28T13:26:18.999Z,5.16
2024-02-28T13:31:20.998Z,5.68
2024-02-28T13:36:22.830Z,6.14
2024-02-28T13:41:24.371Z,6.11
2024-02-28T13:46:25.842Z,6.06
2024-02-28T13:51:27.924Z,6.33
2024-02-28T13:56:31.384Z,5.88
2024-02-28T14:01:33.306Z,6.22
2024-02-28T14:06:34.836Z,6.05
2024-02-28T14:11:36.372Z,6.02
2024-02-28T14:16:37.895Z,5.92
2024-02-28T14:21:39.393Z,6.16
2024-02-28T14:26:40.918Z,6.31
2024-02-28T14:31:43.328Z,6.52
2024-02-28T14:36:44.838Z,5.95
2024-02-28T14:41:46.409Z,6.52
2024-02-28T14:46:47.931Z,6.12
2024-02-28T14:51:50.248Z,6.88
2024-02-28T14:56:51.779Z,7.20
2024-02-28T15:01:54.385Z,6.88
2024-02-28T15:06:55.981Z,7.70
2024-02-28T15:11:57.636Z,6.22
2024-02-28T15:16:59.183Z,7.04
2024-02-28T15:22:00.760Z,7.39
2024-02-28T15:27:02.279Z,6.54
2024-02-28T15:32:03.916Z,6.47
2024-02-28T15:37:05.574Z,7.68
2024-02-28T15:42:08.837Z,7.74
2024-02-28T15:47:10.521Z,7.95
2024-02-28T15:52:12.114Z,7.85
2024-02-28T15:57:13.696Z,7.88
2024-02-28T16:02:15.391Z,7.90
2024-02-28T16:07:17.102Z,7.82
2024-02-28T16:12:18.714Z,7.92
2024-02-28T16:17:20.192Z,7.93
2024-02-28T16:22:22.102Z,7.73
2024-02-28T16:27:23.685Z,7.77
2024-02-28T16:32:25.190Z,7.77
2024-02-28T16:37:27.005Z,7.74
2024-02-28T16:42:28.494Z,7.59
2024-02-28T16:47:30.702Z,7.53
2024-02-28T16:52:32.208Z,7.36
2024-02-28T16:57:33.749Z,7.21
2024-02-28T17:02:36.767Z,7.15
2024-02-28T17:07:38.273Z,7.01
2024-02-28T17:12:40.430Z,5.94
2024-02-28T17:17:41.954Z,6.59
2024-02-28T17:22:43.462Z,6.65
2024-02-28T17:27:45.104Z,6.47
2024-02-28T17:32:49.283Z,6.38
2024-02-28T17:37:50.837Z,6.24
2024-02-28T17:42:52.327Z,6.10
2024-02-28T17:47:53.921Z,6.02
2024-02-28T17:52:56.716Z,5.98
2024-02-28T17:57:58.232Z,5.81
2024-02-28T18:02:59.727Z,5.64
2024-02-28T18:08:01.205Z,5.58
2024-02-28T18:13:02.778Z,5.44
2024-02-28T18:18:04.545Z,5.33
2024-02-28T18:23:07.589Z,5.28
2024-02-28T18:28:10.398Z,5.17
2024-02-28T18:33:12.367Z,5.10
2024-02-28T18:38:13.920Z,5.03
2024-02-28T18:43:18.246Z,4.91
2024-02-28T18:48:19.841Z,4.84
2024-02-28T18:53:21.323Z,4.71
2024-02-28T18:58:22.980Z,4.67
2024-02-28T19:03:24.509Z,4.56
2024-02-28T19:08:26.059Z,4.37
2024-02-28T19:13:29.216Z,4.39
2024-02-28T19:18:30.807Z,4.31
2024-02-28T19:23:32.430Z,4.29
2024-02-28T19:28:33.922Z,4.20
2024-02-28T19:33:39.741Z,3.98
2024-02-28T19:38:43.539Z,3.98
2024-02-28T19:43:45.047Z,3.88
2024-02-28T19:48:48.678Z,3.67
2024-02-28T19:53:50.477Z,3.84
2024-02-28T19:58:52.362Z,3.64
2024-02-28T20:03:53.883Z,3.57
2024-02-28T20:08:55.350Z,3.62
2024-02-28T20:13:56.982Z,3.22
2024-02-28T20:18:58.545Z,3.26
2024-02-28T20:24:00.047Z,3.17
2024-02-28T20:29:01.623Z,3.13
2024-02-28T20:34:03.193Z,3.06
2024-02-28T20:39:04.717Z,3.18
2024-02-28T20:44:10.609Z,2.88
2024-02-28T20:49:12.431Z,2.76
2024-02-28T20:54:14.047Z,2.68
2024-02-28T20:59:15.529Z,2.59
2024-02-28T21:04:17.172Z,2.44
2024-02-28T21:09:18.744Z,2.05
2024-02-28T21:14:20.225Z,2.25
2024-02-28T21:19:21.704Z,2.18
2024-02-28T21:24:23.201Z,1.67
2024-02-28T21:29:24.732Z,2.18
2024-02-28T21:34:26.228Z,1.77
2024-02-28T21:39:27.812Z,2.13
2024-02-28T21:44:29.781Z,2.01
2024-02-28T21:49:31.292Z,1.87
2024-02-28T21:54:32.881Z,1.87
2024-02-28T21:59:34.850Z,1.70
2024-02-28T22:04:36.325Z,2.12
2024-02-28T22:09:38.085Z,2.15
2024-02-28T22:14:39.688Z,1.73
2024-02-28T22:19:41.170Z,1.47
2024-02-28T22:24:43.149Z,1.63
2024-02-28T22:29:44.650Z,1.65
2024-02-28T22:34:46.137Z,1.60
2024-02-28T22:39:48.381Z,1.10
2024-02-28T22:44:49.787Z,1.30
2024-02-28T22:49:51.263Z,1.41
2024-02-28T22:54:52.818Z,1.26
2024-02-28T22:59:54.360Z,1.25
2024-02-28T23:04:57.014Z,1.20
2024-02-28T23:09:58.506Z,1.08
2024-02-28T23:14:59.998Z,0.68
2024-02-28T23:20:01.494Z,0.81
2024-02-28T23:25:03.129Z,0.81
2024-02-28T23:30:07.081Z,0.25
2024-02-28T23:35:09.445Z,0.47
2024-02-28T23:40:12.812Z,0.59
2024-02-28T23:45:14.427Z,0.76
2024-02-28T23:50:18.487Z,0.47
2024-02-28T23:55:20.374Z,0.48
